Terminal Aerodrome Forecast
Issued by NWS

Home | Current Version | Previous Version | Text Only | Print | Product List | Glossary Off
Versions: 1 2 3 4 5 6 7 8 9 10 11 12

000
FTUS43 KMPX 190520
TAFRWF
TAF
KRWF 190520Z 1906/2006 20008KT P6SM BKN250
     FM191800 25011KT P6SM BKN200
     FM192100 28009KT P6SM BKN200
     FM200400 29005KT P6SM BKN150=

USA.gov is the U.S. government's official web portal to all federal, state and local government web resources and services.